Time;durP1;ratioP1;P1;durP2;ratioP2;P2;SDS_P1;SDS_P2;PMS_P1;PMS_P2;Temp;Humidity;BMP_temperature;BMP_pressure;BME280_temperature;BME280_humidity;BME280_pressure;Samples;Min_cycle;Max_cycle;Signal;HPM_P1;HPM_P2
2021/04/04 00:01:20;;;;;;;5.53;3.13;;;;;;;;;;5052018;28;20177;-59
2021/04/04 00:03:46;;;;;;;10.33;3.03;;;;;;;;;;5048857;28;20241;-58
2021/04/04 00:06:12;;;;;;;8.70;3.20;;;;;;;;;;5066729;28;20585;-61
2021/04/04 00:08:38;;;;;;;7.23;3.13;;;;;;;;;;5055376;28;20184;-59
2021/04/04 00:11:05;;;;;;;5.87;3.13;;;;;;;;;;5071067;28;20646;-59
2021/04/04 00:13:31;;;;;;;8.13;2.90;;;;;;;;;;5055209;28;20180;-60
2021/04/04 00:15:57;;;;;;;9.27;2.70;;;;;;;;;;5052272;28;20335;-59
2021/04/04 00:18:23;;;;;;;4.97;2.50;;;;;;;;;;5056951;28;20177;-59
2021/04/04 00:20:49;;;;;;;11.47;3.63;;;;;;;;;;5066715;28;20176;-59
2021/04/04 00:23:15;;;;;;;8.70;2.70;;;;;;;;;;5063981;28;20169;-59
2021/04/04 00:25:41;;;;;;;8.07;3.20;;;;;;;;;;5061040;28;20528;-58
2021/04/04 00:28:07;;;;;;;10.40;4.07;;;;;;;;;;5050485;28;20186;-59
2021/04/04 00:30:33;;;;;;;7.67;3.20;;;;;;;;;;5052263;28;20185;-59
2021/04/04 00:32:59;;;;;;;9.20;3.13;;;;;;;;;;5070466;28;20548;-59
2021/04/04 00:35:26;;;;;;;5.53;2.90;;;;;;;;;;5058013;28;20197;-59
2021/04/04 00:37:52;;;;;;;8.50;3.77;;;;;;;;;;5059250;28;20195;-59
2021/04/04 00:40:26;;;;;;;7.77;3.17;;;;;;;;;;5051849;28;20608;-59
2021/04/04 00:42:52;;;;;;;7.37;2.80;;;;;;;;;;5059471;28;20216;-59
2021/04/04 00:45:20;;;;;;;5.00;2.60;;;;;;;;;;5070148;28;20203;-59
2021/04/04 00:47:47;;;;;;;8.23;3.90;;;;;;;;;;5052768;28;20196;-59
2021/04/04 00:50:14;;;;;;;5.73;2.80;;;;;;;;;;5069302;28;20879;-61
2021/04/04 00:52:40;;;;;;;5.87;2.77;;;;;;;;;;5068832;28;20176;-58
2021/04/04 00:55:08;;;;;;;4.73;2.67;;;;;;;;;;5064482;28;20631;-59
2021/04/04 00:57:34;;;;;;;8.00;3.60;;;;;;;;;;5065994;28;20654;-59
2021/04/04 01:00:00;;;;;;;9.33;3.70;;;;;;;;;;5056386;28;20264;-60
2021/04/04 01:02:26;;;;;;;8.33;2.70;;;;;;;;;;5033817;28;20574;-59
2021/04/04 01:04:54;;;;;;;6.37;2.87;;;;;;;;;;5064638;28;20519;-58
2021/04/04 01:07:20;;;;;;;8.00;2.90;;;;;;;;;;5070422;28;20264;-59
2021/04/04 01:09:46;;;;;;;7.43;2.73;;;;;;;;;;5068085;28;20176;-59
2021/04/04 01:12:28;;;;;;;7.50;3.00;;;;;;;;;;5054569;28;20243;-61
2021/04/04 01:14:59;;;;;;;6.03;2.97;;;;;;;;;;5048691;28;20204;-59
2021/04/04 01:17:26;;;;;;;4.55;2.45;;;;;;;;;;5050664;28;20248;-59
2021/04/04 01:20:05;;;;;;;6.30;2.60;;;;;;;;;;5063014;28;20259;-59
2021/04/04 01:22:41;;;;;;;13.67;4.03;;;;;;;;;;5070229;28;20156;-59
2021/04/04 01:25:09;;;;;;;10.77;3.70;;;;;;;;;;5059862;28;20169;-59
2021/04/04 01:27:50;;;;;;;7.27;3.07;;;;;;;;;;5057491;28;20200;-59
2021/04/04 01:30:16;;;;;;;7.07;3.03;;;;;;;;;;5068541;28;20173;-60
2021/04/04 01:32:45;;;;;;;9.50;2.40;;;;;;;;;;5065456;28;20288;-58
2021/04/04 01:35:11;;;;;;;4.67;2.80;;;;;;;;;;5060004;28;20215;-59
2021/04/04 01:37:38;;;;;;;4.50;2.90;;;;;;;;;;5057688;28;20185;-59
2021/04/04 01:40:06;;;;;;;6.13;2.77;;;;;;;;;;5062843;28;20181;-60
2021/04/04 01:42:34;;;;;;;4.87;2.40;;;;;;;;;;5048932;28;20714;-59
2021/04/04 01:45:01;;;;;;;6.90;3.07;;;;;;;;;;5063675;28;20262;-59
2021/04/04 01:47:27;;;;;;;6.37;2.83;;;;;;;;;;5050446;28;20217;-59
2021/04/04 01:49:54;;;;;;;8.20;2.67;;;;;;;;;;5063574;28;20189;-59
2021/04/04 01:52:20;;;;;;;8.60;2.70;;;;;;;;;;5052091;28;20174;-59
2021/04/04 01:54:46;;;;;;;6.30;4.03;;;;;;;;;;5057185;28;20227;-59
2021/04/04 01:57:13;;;;;;;7.33;3.00;;;;;;;;;;5067936;28;20197;-59
2021/04/04 01:59:40;;;;;;;4.37;2.63;;;;;;;;;;5059472;28;20181;-59
2021/04/04 02:02:06;;;;;;;5.17;2.50;;;;;;;;;;5069709;28;20179;-59
2021/04/04 02:04:33;;;;;;;5.30;2.53;;;;;;;;;;5061940;28;20188;-59
2021/04/04 02:06:59;;;;;;;3.93;2.60;;;;;;;;;;5069148;28;20192;-61
2021/04/04 02:09:26;;;;;;;3.87;2.30;;;;;;;;;;5048329;28;20582;-59
2021/04/04 02:11:53;;;;;;;5.47;2.50;;;;;;;;;;5053651;28;20263;-59
2021/04/04 02:14:22;;;;;;;6.43;2.83;;;;;;;;;;5060625;28;20184;-59
2021/04/04 02:16:49;;;;;;;3.80;1.93;;;;;;;;;;5065699;28;20609;-59
2021/04/04 02:19:18;;;;;;;6.57;2.53;;;;;;;;;;5061063;28;20731;-59
2021/04/04 02:21:44;;;;;;;4.23;2.47;;;;;;;;;;5070366;28;20252;-58
2021/04/04 02:24:12;;;;;;;3.83;2.30;;;;;;;;;;5058723;28;20177;-59
2021/04/04 02:26:38;;;;;;;6.77;2.97;;;;;;;;;;5053414;28;20208;-58
2021/04/04 02:29:05;;;;;;;5.10;2.50;;;;;;;;;;5056192;28;20259;-59
2021/04/04 02:31:34;;;;;;;4.23;2.40;;;;;;;;;;5070120;28;20180;-59
2021/04/04 02:34:02;;;;;;;3.40;2.20;;;;;;;;;;5067487;28;20185;-60
2021/04/04 02:36:29;;;;;;;3.93;2.50;;;;;;;;;;5063439;28;20291;-59
2021/04/04 02:39:00;;;;;;;5.00;2.30;;;;;;;;;;5068185;28;20264;-59
2021/04/04 02:41:27;;;;;;;6.10;2.60;;;;;;;;;;5064048;28;20228;-60
2021/04/04 02:43:54;;;;;;;7.63;3.13;;;;;;;;;;5047400;28;20238;-60
2021/04/04 02:46:22;;;;;;;5.40;2.27;;;;;;;;;;5053133;28;20181;-59
2021/04/04 02:48:53;;;;;;;6.43;2.47;;;;;;;;;;5064825;28;20222;-58
2021/04/04 02:51:21;;;;;;;6.90;2.77;;;;;;;;;;5052972;28;20176;-61
2021/04/04 02:53:50;;;;;;;4.17;2.07;;;;;;;;;;5070171;28;20671;-58
2021/04/04 02:56:18;;;;;;;3.83;2.77;;;;;;;;;;5064580;28;20265;-59
2021/04/04 02:58:46;;;;;;;6.40;2.17;;;;;;;;;;5058977;28;20184;-60
2021/04/04 03:01:13;;;;;;;5.23;2.97;;;;;;;;;;5069626;28;20192;-58
2021/04/04 03:03:40;;;;;;;6.57;3.13;;;;;;;;;;5055389;28;20249;-58
2021/04/04 03:06:07;;;;;;;4.03;2.20;;;;;;;;;;5053596;28;20177;-59
2021/04/04 03:08:36;;;;;;;6.97;2.60;;;;;;;;;;5059609;28;20238;-59
2021/04/04 03:11:03;;;;;;;6.17;3.10;;;;;;;;;;5057679;28;20223;-60
2021/04/04 03:13:29;;;;;;;7.00;3.13;;;;;;;;;;5066296;28;20651;-59
2021/04/04 03:15:56;;;;;;;4.57;2.70;;;;;;;;;;5068810;28;20204;-60
2021/04/04 03:18:22;;;;;;;7.93;3.00;;;;;;;;;;5068845;28;20196;-59
2021/04/04 03:20:49;;;;;;;4.93;2.77;;;;;;;;;;5070462;28;20172;-59
2021/04/04 03:23:16;;;;;;;5.33;2.67;;;;;;;;;;5060898;28;20208;-61
2021/04/04 03:25:43;;;;;;;4.50;2.77;;;;;;;;;;5052554;28;20192;-59
2021/04/04 03:28:10;;;;;;;5.57;2.70;;;;;;;;;;5061618;28;20318;-60
2021/04/04 03:30:42;;;;;;;5.70;2.93;;;;;;;;;;5064377;28;20181;-59
2021/04/04 03:33:09;;;;;;;5.00;3.00;;;;;;;;;;5046350;28;20188;-59
2021/04/04 03:35:35;;;;;;;7.43;3.33;;;;;;;;;;5056950;28;20663;-60
2021/04/04 03:38:02;;;;;;;4.47;2.57;;;;;;;;;;5060888;28;20174;-59
2021/04/04 03:40:29;;;;;;;4.83;2.63;;;;;;;;;;5034724;28;20239;-59
2021/04/04 03:42:56;;;;;;;6.40;3.57;;;;;;;;;;5037356;28;20208;-59
2021/04/04 03:45:23;;;;;;;6.13;3.03;;;;;;;;;;5060848;28;20246;-59
2021/04/04 03:47:49;;;;;;;5.17;2.97;;;;;;;;;;5052235;28;20177;-58
2021/04/04 03:50:19;;;;;;;7.00;2.80;;;;;;;;;;5049125;28;20192;-59
2021/04/04 03:52:46;;;;;;;5.97;3.03;;;;;;;;;;5048371;28;20219;-59
2021/04/04 03:55:13;;;;;;;7.63;3.50;;;;;;;;;;5063867;28;20208;-58
2021/04/04 03:57:39;;;;;;;6.43;3.20;;;;;;;;;;5033941;28;20180;-58
2021/04/04 04:00:07;;;;;;;8.70;3.47;;;;;;;;;;5069000;28;20191;-59
2021/04/04 04:02:35;;;;;;;3.83;2.87;;;;;;;;;;5071339;28;20260;-59
2021/04/04 04:05:02;;;;;;;10.30;3.60;;;;;;;;;;5065139;28;20250;-59
2021/04/04 04:07:28;;;;;;;4.60;2.93;;;;;;;;;;5056159;28;20688;-59
2021/04/04 04:09:54;;;;;;;7.83;3.80;;;;;;;;;;5066631;28;20255;-59
2021/04/04 04:12:20;;;;;;;6.30;3.07;;;;;;;;;;5068982;28;20299;-59
2021/04/04 04:14:47;;;;;;;6.07;2.87;;;;;;;;;;5064148;28;20218;-59
2021/04/04 04:17:13;;;;;;;7.50;3.20;;;;;;;;;;5070161;28;20196;-59
2021/04/04 04:19:39;;;;;;;7.07;3.30;;;;;;;;;;5061896;28;20187;-58
2021/04/04 04:22:05;;;;;;;8.53;3.20;;;;;;;;;;5050256;28;20689;-58
2021/04/04 04:24:32;;;;;;;7.73;3.17;;;;;;;;;;5066413;28;20188;-59
2021/04/04 04:26:58;;;;;;;5.53;3.23;;;;;;;;;;5053749;28;20179;-58
2021/04/04 04:29:26;;;;;;;6.17;3.03;;;;;;;;;;5059116;28;20184;-58
2021/04/04 04:31:54;;;;;;;5.00;2.97;;;;;;;;;;5068209;28;20192;-59
2021/04/04 04:34:21;;;;;;;5.50;2.80;;;;;;;;;;5044856;28;20173;-59
2021/04/04 04:36:48;;;;;;;5.87;3.97;;;;;;;;;;5067934;28;20192;-59
2021/04/04 04:39:15;;;;;;;7.40;3.40;;;;;;;;;;5070342;28;20176;-59
2021/04/04 04:41:45;;;;;;;5.10;3.30;;;;;;;;;;5066202;28;20298;-60
2021/04/04 04:44:13;;;;;;;6.50;2.97;;;;;;;;;;5062473;28;20639;-59
2021/04/04 04:46:39;;;;;;;5.40;2.97;;;;;;;;;;5050508;28;20172;-58
2021/04/04 04:49:09;;;;;;;5.73;2.63;;;;;;;;;;5061666;28;20223;-58
2021/04/04 04:51:35;;;;;;;5.43;2.90;;;;;;;;;;5031919;28;20177;-58
2021/04/04 04:54:01;;;;;;;6.10;3.00;;;;;;;;;;5068840;28;20188;-60
2021/04/04 04:56:27;;;;;;;6.27;3.00;;;;;;;;;;5034614;28;20350;-59
2021/04/04 04:58:54;;;;;;;5.23;2.93;;;;;;;;;;5059930;28;20200;-58
2021/04/04 05:01:22;;;;;;;6.90;3.23;;;;;;;;;;5069715;28;20278;-59
2021/04/04 05:03:48;;;;;;;4.07;2.53;;;;;;;;;;5065956;28;20183;-59
2021/04/04 05:06:15;;;;;;;7.30;2.77;;;;;;;;;;5061948;28;20642;-58
2021/04/04 05:08:43;;;;;;;4.40;2.63;;;;;;;;;;5051386;28;20242;-59
2021/04/04 05:11:10;;;;;;;7.87;3.10;;;;;;;;;;5066730;28;20187;-58
2021/04/04 05:13:40;;;;;;;5.13;2.57;;;;;;;;;;5045175;28;20397;-59
2021/04/04 05:16:16;;;;;;;4.33;2.43;;;;;;;;;;5063624;28;20458;-59
2021/04/04 05:18:49;;;;;;;5.33;3.03;;;;;;;;;;5055820;28;20177;-59
2021/04/04 05:21:33;;;;;;;6.13;3.20;;;;;;;;;;5050017;28;20546;-59
2021/04/04 05:24:00;;;;;;;5.90;2.50;;;;;;;;;;5044326;28;20187;-59
2021/04/04 05:26:27;;;;;;;5.80;2.50;;;;;;;;;;5048437;28;20207;-62
2021/04/04 05:29:01;;;;;;;4.93;2.60;;;;;;;;;;5057537;28;20547;-59
2021/04/04 05:31:27;;;;;;;5.37;2.93;;;;;;;;;;5067433;28;20647;-59
2021/04/04 05:33:53;;;;;;;5.97;2.83;;;;;;;;;;5048259;28;20192;-60
2021/04/04 05:36:19;;;;;;;4.93;2.90;;;;;;;;;;5039012;28;20201;-59
2021/04/04 05:38:45;;;;;;;5.40;2.50;;;;;;;;;;5041673;28;20183;-59
2021/04/04 05:41:12;;;;;;;7.13;2.57;;;;;;;;;;5058231;28;20228;-59
2021/04/04 05:43:41;;;;;;;6.83;3.43;;;;;;;;;;5059286;28;20229;-59
2021/04/04 05:46:17;;;;;;;5.43;2.70;;;;;;;;;;5072600;28;20208;-59
2021/04/04 05:48:54;;;;;;;5.67;2.37;;;;;;;;;;5069848;28;20176;-59
2021/04/04 05:51:30;;;;;;;6.27;3.23;;;;;;;;;;5035329;28;20589;-59
2021/04/04 05:53:59;;;;;;;5.60;2.50;;;;;;;;;;5067756;28;20179;-59
2021/04/04 05:56:31;;;;;;;5.83;2.40;;;;;;;;;;5054301;28;20224;-60
2021/04/04 05:59:05;;;;;;;9.07;3.70;;;;;;;;;;5044456;28;20238;-59
2021/04/04 06:01:48;;;;;;;8.88;4.32;;;;;;;;;;5059315;28;20422;-59
2021/04/04 06:04:17;;;;;;;13.07;4.53;;;;;;;;;;5070079;28;20238;-60
2021/04/04 06:06:56;;;;;;;10.83;4.50;;;;;;;;;;5044576;28;20177;-60
2021/04/04 06:09:25;;;;;;;7.67;4.10;;;;;;;;;;5045474;28;20169;-61
2021/04/04 06:12:09;;;;;;;13.67;4.60;;;;;;;;;;5056749;28;20180;-59
2021/04/04 06:15:01;;;;;;;6.93;3.93;;;;;;;;;;5065173;28;20187;-59
2021/04/04 06:17:38;;;;;;;12.40;4.77;;;;;;;;;;5038428;28;20200;-60
2021/04/04 06:20:14;;;;;;;8.27;4.63;;;;;;;;;;5057896;28;20654;-60
2021/04/04 06:22:53;;;;;;;11.63;4.50;;;;;;;;;;5055708;28;20164;-60
2021/04/04 06:25:39;;;;;;;6.83;4.07;;;;;;;;;;5056093;28;20169;-59
2021/04/04 06:28:09;;;;;;;12.30;4.97;;;;;;;;;;5060252;28;20180;-59
2021/04/04 06:30:46;;;;;;;11.30;4.93;;;;;;;;;;5056916;28;20197;-59
2021/04/04 06:33:16;;;;;;;7.60;4.40;;;;;;;;;;5066263;28;20164;-60
2021/04/04 06:35:50;;;;;;;12.43;5.10;;;;;;;;;;5070095;28;20230;-61
2021/04/04 06:38:29;;;;;;;13.30;4.60;;;;;;;;;;5068849;28;20521;-59
2021/04/04 06:41:13;;;;;;;7.73;4.80;;;;;;;;;;5046409;28;20656;-59
2021/04/04 06:43:41;;;;;;;14.03;5.80;;;;;;;;;;5052641;28;20183;-59
2021/04/04 06:46:33;;;;;;;9.97;5.00;;;;;;;;;;5047478;28;20275;-59
2021/04/04 06:49:23;;;;;;;11.77;4.70;;;;;;;;;;5058513;28;20196;-59
2021/04/04 06:52:07;;;;;;;10.27;4.13;;;;;;;;;;5052489;28;20187;-59
2021/04/04 06:54:45;;;;;;;9.23;4.90;;;;;;;;;;5051849;28;20278;-59
2021/04/04 06:57:38;;;;;;;7.60;4.20;;;;;;;;;;5059437;28;20232;-58
2021/04/04 07:00:12;;;;;;;12.43;5.00;;;;;;;;;;5042309;28;20220;-61
2021/04/04 07:02:49;;;;;;;10.43;4.40;;;;;;;;;;5061102;28;20203;-59
2021/04/04 07:05:15;;;;;;;8.63;4.00;;;;;;;;;;5038440;28;20177;-60
2021/04/04 07:08:00;;;;;;;7.27;4.03;;;;;;;;;;5057132;28;20267;-59
2021/04/04 07:10:26;;;;;;;6.80;3.60;;;;;;;;;;5070127;28;20191;-59
2021/04/04 07:12:58;;;;;;;5.37;3.50;;;;;;;;;;5060848;28;20177;-59
2021/04/04 07:15:35;;;;;;;4.93;3.00;;;;;;;;;;5062798;28;20177;-60
2021/04/04 07:18:10;;;;;;;10.63;3.20;;;;;;;;;;5034367;28;20671;-59
2021/04/04 07:20:43;;;;;;;8.07;3.23;;;;;;;;;;5047911;28;20814;-59
2021/04/04 07:23:16;;;;;;;8.00;2.90;;;;;;;;;;5052850;28;20188;-59
2021/04/04 07:25:45;;;;;;;9.73;4.03;;;;;;;;;;5050907;28;20279;-60
2021/04/04 07:28:15;;;;;;;7.77;4.10;;;;;;;;;;5059460;28;20199;-59
2021/04/04 07:30:43;;;;;;;9.87;5.90;;;;;;;;;;5053220;28;20228;-59
2021/04/04 07:33:15;;;;;;;13.90;6.33;;;;;;;;;;5037640;28;20583;-59
2021/04/04 07:35:54;;;;;;;9.60;5.50;;;;;;;;;;5052333;28;20230;-60
2021/04/04 07:38:27;;;;;;;8.80;5.23;;;;;;;;;;5052576;28;20924;-59
2021/04/04 07:40:59;;;;;;;10.83;5.80;;;;;;;;;;5068937;28;20221;-60
2021/04/04 07:43:29;;;;;;;5.90;4.07;;;;;;;;;;5066770;28;20177;-59
2021/04/04 07:46:21;;;;;;;7.90;4.00;;;;;;;;;;5076613;28;20226;-59
2021/04/04 07:48:50;;;;;;;9.10;4.53;;;;;;;;;;5056764;28;20181;-61
2021/04/04 07:51:17;;;;;;;9.50;4.53;;;;;;;;;;5068022;28;20225;-62
2021/04/04 07:53:48;;;;;;;7.40;3.80;;;;;;;;;;5069948;28;20184;-62
2021/04/04 07:56:17;;;;;;;6.87;3.53;;;;;;;;;;5032151;28;20209;-63
2021/04/04 07:59:06;;;;;;;8.93;2.90;;;;;;;;;;5052657;28;20660;-61
2021/04/04 08:01:39;;;;;;;6.87;3.43;;;;;;;;;;5021663;28;20189;-62
2021/04/04 08:04:11;;;;;;;5.37;3.53;;;;;;;;;;5052284;28;20192;-62
2021/04/04 08:06:41;;;;;;;5.53;2.87;;;;;;;;;;5052919;28;20583;-62
2021/04/04 08:09:18;;;;;;;6.97;3.03;;;;;;;;;;5067062;28;20262;-62
2021/04/04 08:11:47;;;;;;;6.37;3.10;;;;;;;;;;5068931;28;20161;-62
2021/04/04 08:14:18;;;;;;;7.27;3.90;;;;;;;;;;5065227;28;20180;-62
2021/04/04 08:17:00;;;;;;;5.77;2.53;;;;;;;;;;5053626;28;20283;-62
2021/04/04 08:19:26;;;;;;;9.47;3.40;;;;;;;;;;5059326;28;20512;-61
2021/04/04 08:22:04;;;;;;;5.03;2.93;;;;;;;;;;5070640;28;20212;-61
2021/04/04 08:24:38;;;;;;;9.47;3.33;;;;;;;;;;5052244;28;20184;-62
2021/04/04 08:27:14;;;;;;;4.97;2.73;;;;;;;;;;5051125;28;20222;-65
2021/04/04 08:29:49;;;;;;;7.80;3.10;;;;;;;;;;5065403;28;20184;-62
2021/04/04 08:32:16;;;;;;;10.77;3.43;;;;;;;;;;5066180;28;20901;-62
2021/04/04 08:34:53;;;;;;;5.63;2.83;;;;;;;;;;5044633;28;20188;-62
2021/04/04 08:37:22;;;;;;;8.47;3.20;;;;;;;;;;5059190;28;20200;-62
2021/04/04 08:40:02;;;;;;;8.23;3.00;;;;;;;;;;5063347;28;20172;-62
2021/04/04 08:42:29;;;;;;;9.67;3.17;;;;;;;;;;5039077;28;20551;-61
2021/04/04 08:45:01;;;;;;;8.90;3.00;;;;;;;;;;5064215;28;20204;-62
2021/04/04 08:47:29;;;;;;;5.77;2.93;;;;;;;;;;5070369;28;20655;-62
2021/04/04 08:49:56;;;;;;;7.40;3.43;;;;;;;;;;5058367;28;20297;-62
2021/04/04 08:52:45;;;;;;;8.37;2.70;;;;;;;;;;5050328;28;20181;-62
2021/04/04 08:55:13;;;;;;;7.43;3.13;;;;;;;;;;5060732;28;20204;-62
2021/04/04 08:57:44;;;;;;;6.70;2.93;;;;;;;;;;5051139;28;20682;-64
2021/04/04 09:00:11;;;;;;;5.10;3.00;;;;;;;;;;5048347;28;20537;-61
2021/04/04 09:02:40;;;;;;;4.83;2.57;;;;;;;;;;5070190;28;20182;-61
2021/04/04 09:05:08;;;;;;;5.73;3.20;;;;;;;;;;5051152;28;20181;-62
2021/04/04 09:07:35;;;;;;;6.17;2.60;;;;;;;;;;5055122;28;20808;-64
2021/04/04 09:10:03;;;;;;;11.87;3.10;;;;;;;;;;5064868;28;20184;-61
2021/04/04 09:12:33;;;;;;;14.43;3.73;;;;;;;;;;5051189;28;20612;-62
2021/04/04 09:15:03;;;;;;;3.53;2.67;;;;;;;;;;5051060;28;20188;-63
2021/04/04 09:17:29;;;;;;;4.00;2.73;;;;;;;;;;5072774;28;20207;-61
2021/04/04 09:19:58;;;;;;;8.60;3.10;;;;;;;;;;5057294;28;20647;-61
2021/04/04 09:22:24;;;;;;;4.30;2.60;;;;;;;;;;5053864;28;20181;-64
2021/04/04 09:24:50;;;;;;;6.90;2.60;;;;;;;;;;5051941;28;20404;-61
2021/04/04 09:27:18;;;;;;;6.17;2.47;;;;;;;;;;5054906;28;20254;-61
2021/04/04 09:29:45;;;;;;;4.13;2.20;;;;;;;;;;5054627;28;20187;-64
2021/04/04 09:32:14;;;;;;;3.57;2.27;;;;;;;;;;5073740;28;20173;-61
2021/04/04 09:34:42;;;;;;;8.13;3.57;;;;;;;;;;5073000;28;20245;-61
2021/04/04 09:37:09;;;;;;;5.33;3.10;;;;;;;;;;5073637;28;20541;-62
2021/04/04 09:39:37;;;;;;;6.13;3.87;;;;;;;;;;5069178;28;20297;-61
2021/04/04 09:42:04;;;;;;;9.97;4.13;;;;;;;;;;5064101;28;20566;-61
2021/04/04 09:44:30;;;;;;;4.03;3.20;;;;;;;;;;5043539;28;20276;-61
2021/04/04 09:47:01;;;;;;;6.10;3.13;;;;;;;;;;5053454;28;20182;-61
2021/04/04 09:49:41;;;;;;;5.30;3.20;;;;;;;;;;5064557;28;20717;-62
2021/04/04 09:52:27;;;;;;;4.10;3.17;;;;;;;;;;5053343;28;20173;-61
2021/04/04 09:55:05;;;;;;;5.30;2.90;;;;;;;;;;5066737;28;20179;-61
2021/04/04 09:57:38;;;;;;;4.57;3.03;;;;;;;;;;5066000;28;20367;-62
2021/04/04 10:00:14;;;;;;;5.60;3.13;;;;;;;;;;5069018;28;20164;-61
2021/04/04 10:02:40;;;;;;;7.30;3.27;;;;;;;;;;5055077;28;20286;-61
2021/04/04 10:05:06;;;;;;;4.83;2.87;;;;;;;;;;5072008;28;20172;-62
2021/04/04 10:07:33;;;;;;;5.40;3.97;;;;;;;;;;5073034;28;20169;-61
2021/04/04 10:10:00;;;;;;;6.83;3.30;;;;;;;;;;5070162;28;20200;-61
2021/04/04 10:12:26;;;;;;;3.60;2.60;;;;;;;;;;5041185;28;20271;-62
2021/04/04 10:15:02;;;;;;;6.23;3.07;;;;;;;;;;5062007;28;20682;-61
2021/04/04 10:17:28;;;;;;;6.40;4.33;;;;;;;;;;5052554;28;20196;-61
2021/04/04 10:19:55;;;;;;;5.33;2.60;;;;;;;;;;5065870;28;20237;-61
2021/04/04 10:22:21;;;;;;;3.47;2.57;;;;;;;;;;5052580;28;20181;-62
2021/04/04 10:24:47;;;;;;;6.90;2.57;;;;;;;;;;5065393;28;20176;-62
2021/04/04 10:27:26;;;;;;;3.87;2.03;;;;;;;;;;5071866;28;20639;-61
2021/04/04 10:30:05;;;;;;;8.33;2.63;;;;;;;;;;5067652;28;20261;-61
2021/04/04 10:32:31;;;;;;;3.27;2.07;;;;;;;;;;5039984;28;20250;-62
2021/04/04 10:34:57;;;;;;;3.00;2.27;;;;;;;;;;5067074;28;20653;-62
2021/04/04 10:37:25;;;;;;;4.87;3.13;;;;;;;;;;5072903;28;20196;-62
2021/04/04 10:40:00;;;;;;;6.03;2.67;;;;;;;;;;5067337;28;20643;-62
2021/04/04 10:42:27;;;;;;;3.53;2.53;;;;;;;;;;5071774;28;20273;-61
2021/04/04 10:45:08;;;;;;;7.47;2.77;;;;;;;;;;5067388;28;20176;-61
2021/04/04 10:47:34;;;;;;;4.67;2.80;;;;;;;;;;5057279;28;20185;-62
2021/04/04 10:50:02;;;;;;;3.63;2.50;;;;;;;;;;5051861;28;20731;-63
2021/04/04 10:52:28;;;;;;;5.67;2.73;;;;;;;;;;5053988;28;20183;-61
2021/04/04 10:54:56;;;;;;;4.63;2.33;;;;;;;;;;5052739;28;20176;-61
2021/04/04 10:57:22;;;;;;;4.37;3.17;;;;;;;;;;5071861;28;20575;-62
2021/04/04 10:59:49;;;;;;;2.47;2.03;;;;;;;;;;5049093;28;20187;-62
2021/04/04 11:02:15;;;;;;;5.47;3.27;;;;;;;;;;5060586;28;20711;-62
2021/04/04 11:04:41;;;;;;;6.27;2.90;;;;;;;;;;5062412;28;20216;-62
2021/04/04 11:07:08;;;;;;;4.20;3.07;;;;;;;;;;5033564;28;20283;-62
2021/04/04 11:09:34;;;;;;;4.87;2.77;;;;;;;;;;5044989;28;20188;-63
2021/04/04 11:12:01;;;;;;;4.47;2.53;;;;;;;;;;5052871;28;20543;-61
2021/04/04 11:14:30;;;;;;;5.87;3.53;;;;;;;;;;5068086;28;20176;-62
2021/04/04 11:16:58;;;;;;;6.97;3.20;;;;;;;;;;5052790;28;20199;-63
2021/04/04 11:19:26;;;;;;;4.70;3.10;;;;;;;;;;5052646;28;20191;-61
2021/04/04 11:21:54;;;;;;;5.83;2.87;;;;;;;;;;5070403;28;20624;-62
2021/04/04 11:24:22;;;;;;;9.23;3.47;;;;;;;;;;5042246;28;20638;-62
2021/04/04 11:26:57;;;;;;;5.57;2.80;;;;;;;;;;5070565;28;20255;-62
2021/04/04 11:29:24;;;;;;;4.23;2.70;;;;;;;;;;5049951;28;20546;-62
2021/04/04 11:31:58;;;;;;;4.60;3.00;;;;;;;;;;5071231;28;20231;-61
2021/04/04 11:34:33;;;;;;;4.70;2.90;;;;;;;;;;5052223;28;20184;-62
2021/04/04 11:37:00;;;;;;;5.27;2.97;;;;;;;;;;5070843;28;20241;-62
2021/04/04 11:39:27;;;;;;;4.67;3.13;;;;;;;;;;5047055;28;20189;-63
2021/04/04 11:41:57;;;;;;;5.53;2.80;;;;;;;;;;5050824;28;20296;-61
2021/04/04 11:44:31;;;;;;;4.93;3.50;;;;;;;;;;5061714;28;20537;-62
2021/04/04 11:47:01;;;;;;;8.07;2.83;;;;;;;;;;5053628;28;20176;-62
2021/04/04 11:49:33;;;;;;;7.63;3.10;;;;;;;;;;5071050;28;20208;-62
2021/04/04 11:52:01;;;;;;;3.70;2.40;;;;;;;;;;5048195;28;20265;-63
2021/04/04 11:54:42;;;;;;;5.90;2.80;;;;;;;;;;5061950;28;20271;-63
2021/04/04 11:57:08;;;;;;;5.30;2.87;;;;;;;;;;5048077;28;20269;-62
2021/04/04 11:59:35;;;;;;;6.03;2.90;;;;;;;;;;5050616;28;20177;-62
2021/04/04 12:02:01;;;;;;;3.07;2.60;;;;;;;;;;5053509;28;20840;-63
2021/04/04 12:04:35;;;;;;;4.73;2.63;;;;;;;;;;5070686;28;20176;-62
2021/04/04 12:07:11;;;;;;;5.20;2.63;;;;;;;;;;5071385;28;20865;-62
2021/04/04 12:09:37;;;;;;;4.53;2.87;;;;;;;;;;5069929;28;20187;-63
2021/04/04 12:12:04;;;;;;;5.57;2.77;;;;;;;;;;5070791;28;20172;-62
2021/04/04 12:14:30;;;;;;;5.53;2.33;;;;;;;;;;5069838;28;20184;-62
2021/04/04 12:16:56;;;;;;;5.57;2.33;;;;;;;;;;5071302;28;20200;-63
2021/04/04 12:19:25;;;;;;;4.77;2.30;;;;;;;;;;5070059;28;20183;-63
2021/04/04 12:21:52;;;;;;;3.07;1.97;;;;;;;;;;5071064;28;20177;-63
2021/04/04 12:24:19;;;;;;;5.00;2.33;;;;;;;;;;5052713;28;20180;-62
2021/04/04 12:26:45;;;;;;;6.83;3.37;;;;;;;;;;5070322;28;20994;-62
2021/04/04 12:29:11;;;;;;;4.17;2.50;;;;;;;;;;5067212;28;20184;-62
2021/04/04 12:31:40;;;;;;;5.00;2.60;;;;;;;;;;5055491;28;20189;-63
2021/04/04 12:34:07;;;;;;;4.83;2.57;;;;;;;;;;5059108;28;20184;-61
2021/04/04 12:36:41;;;;;;;4.00;3.43;;;;;;;;;;5067794;28;20201;-61
2021/04/04 12:39:08;;;;;;;4.67;2.80;;;;;;;;;;5058756;28;20175;-62
2021/04/04 12:41:34;;;;;;;4.23;2.27;;;;;;;;;;5070068;28;20648;-61
2021/04/04 12:44:00;;;;;;;5.20;2.17;;;;;;;;;;5067972;28;20185;-61
2021/04/04 12:46:32;;;;;;;3.83;2.23;;;;;;;;;;5046933;28;20606;-62
2021/04/04 12:48:58;;;;;;;3.43;2.40;;;;;;;;;;5068110;28;20203;-61
2021/04/04 12:51:25;;;;;;;5.70;3.07;;;;;;;;;;5068672;28;20173;-64
2021/04/04 12:53:51;;;;;;;4.43;2.60;;;;;;;;;;5049940;28;20188;-62
2021/04/04 12:56:38;;;;;;;5.17;3.10;;;;;;;;;;5069627;28;20203;-63
2021/04/04 12:59:04;;;;;;;3.33;2.53;;;;;;;;;;5066804;28;20233;-62
2021/04/04 13:01:31;;;;;;;7.83;2.90;;;;;;;;;;5069712;28;20172;-61
2021/04/04 13:03:58;;;;;;;8.20;3.03;;;;;;;;;;5047613;28;20707;-60
2021/04/04 13:06:24;;;;;;;6.90;3.20;;;;;;;;;;5051840;28;20683;-60
2021/04/04 13:08:50;;;;;;;5.97;3.03;;;;;;;;;;5069647;28;20176;-60
2021/04/04 13:11:18;;;;;;;6.43;3.10;;;;;;;;;;5069460;28;20230;-63
2021/04/04 13:13:45;;;;;;;8.60;3.23;;;;;;;;;;5068231;28;20176;-63
2021/04/04 13:16:12;;;;;;;4.23;2.40;;;;;;;;;;5050720;28;20548;-63
2021/04/04 13:18:43;;;;;;;6.87;3.03;;;;;;;;;;5052787;28;20176;-63
2021/04/04 13:21:19;;;;;;;5.80;3.50;;;;;;;;;;5066865;28;20529;-63
2021/04/04 13:23:47;;;;;;;7.43;3.53;;;;;;;;;;5056579;28;20183;-63
2021/04/04 13:26:17;;;;;;;5.27;3.40;;;;;;;;;;5055565;28;20180;-59
2021/04/04 13:28:43;;;;;;;5.23;3.10;;;;;;;;;;5068354;28;20172;-60
2021/04/04 13:31:10;;;;;;;3.10;2.30;;;;;;;;;;5070257;28;20314;-60
2021/04/04 13:33:36;;;;;;;6.00;3.07;;;;;;;;;;5068942;28;20620;-59
2021/04/04 13:36:22;;;;;;;5.60;3.20;;;;;;;;;;5070600;28;20234;-59
2021/04/04 13:38:50;;;;;;;6.13;3.40;;;;;;;;;;5066867;28;20181;-61
2021/04/04 13:41:18;;;;;;;7.57;4.60;;;;;;;;;;5069696;28;20322;-59
2021/04/04 13:43:48;;;;;;;6.83;4.60;;;;;;;;;;5068168;28;20267;-59
2021/04/04 13:46:33;;;;;;;9.20;5.53;;;;;;;;;;5058723;28;20177;-59
2021/04/04 13:49:01;;;;;;;10.33;3.90;;;;;;;;;;5056007;28;20592;-59
2021/04/04 13:51:27;;;;;;;5.17;4.10;;;;;;;;;;5047687;28;20961;-59
2021/04/04 13:54:12;;;;;;;7.20;3.77;;;;;;;;;;5056368;28;20559;-59
2021/04/04 13:56:39;;;;;;;6.47;3.80;;;;;;;;;;5035707;28;20279;-59
2021/04/04 13:59:21;;;;;;;7.43;4.07;;;;;;;;;;5057928;28;20176;-59
2021/04/04 14:01:53;;;;;;;7.57;4.30;;;;;;;;;;5032866;28;20205;-59
2021/04/04 14:04:22;;;;;;;7.00;4.23;;;;;;;;;;5062829;28;20191;-56
2021/04/04 14:06:58;;;;;;;7.77;4.80;;;;;;;;;;5072998;28;20177;-61
2021/04/04 14:09:25;;;;;;;7.27;4.50;;;;;;;;;;5055280;28;20188;-59
2021/04/04 14:11:51;;;;;;;6.70;5.43;;;;;;;;;;5053367;28;20188;-60
2021/04/04 14:14:17;;;;;;;6.63;5.57;;;;;;;;;;5072416;28;20177;-59
2021/04/04 14:16:43;;;;;;;13.63;7.10;;;;;;;;;;5072589;28;20196;-59
2021/04/04 14:19:12;;;;;;;8.53;7.30;;;;;;;;;;5053800;28;20192;-59
2021/04/04 14:21:38;;;;;;;8.33;6.20;;;;;;;;;;5039445;28;20181;-61
2021/04/04 14:24:04;;;;;;;10.77;5.87;;;;;;;;;;5042174;28;20226;-58
2021/04/04 14:26:30;;;;;;;7.30;4.87;;;;;;;;;;5072333;28;20541;-57
2021/04/04 14:28:56;;;;;;;8.47;4.33;;;;;;;;;;5048121;28;20514;-58
2021/04/04 14:31:25;;;;;;;7.83;4.57;;;;;;;;;;5074585;28;20286;-59
2021/04/04 14:33:51;;;;;;;6.23;3.90;;;;;;;;;;5074247;28;20199;-59
2021/04/04 14:36:17;;;;;;;7.57;4.50;;;;;;;;;;5056018;28;20264;-59
2021/04/04 14:38:44;;;;;;;5.03;4.00;;;;;;;;;;5072183;28;20218;-60
2021/04/04 14:41:10;;;;;;;4.97;3.60;;;;;;;;;;5055823;28;20220;-59
2021/04/04 14:44:01;;;;;;;9.03;5.87;;;;;;;;;;5065499;28;20218;-60
2021/04/04 14:46:29;;;;;;;7.47;5.90;;;;;;;;;;5067636;28;20192;-59
2021/04/04 14:48:55;;;;;;;12.33;5.17;;;;;;;;;;5059141;28;20184;-59
2021/04/04 14:51:22;;;;;;;8.90;5.13;;;;;;;;;;5063771;28;20211;-59
2021/04/04 14:53:48;;;;;;;9.97;4.30;;;;;;;;;;5041647;28;20191;-61
2021/04/04 14:56:15;;;;;;;7.93;4.40;;;;;;;;;;5066113;28;20572;-60
2021/04/04 14:58:41;;;;;;;7.33;4.60;;;;;;;;;;5048493;28;20180;-59